Home > Products > Valid Products > MTR

000
SAUS46 KPDT 260301 COR
MTRMEH
METAR KMEH 260256Z AUTO 00000KT 10SM FEW095 13/04 A3007 RMK AO2
SLP178 T01330044 53004





000
SAUS46 KPDT 260001 COR
MTRMEH
METAR KMEH 252356Z AUTO VRB04KT 10SM BKN080 17/03 A3006 RMK AO2
SLP181 T01670028 10183 20128 56008





000
SAUS46 KPDT 252300
MTRMEH
METAR KMEH 252256Z AUTO 10SM SCT049 17/03 A3007 RMK AO2 SLP182
T01670033





000
SAUS46 KPDT 252159 COR
MTRMEH
METAR KMEH 252156Z AUTO VRB03KT 10SM FEW044 SCT070 17/04 A3007 RMK
AO2 SLP182 T01720039





000
SAUS46 KPDT 252101 COR
MTRMEH
METAR KMEH 252056Z AUTO VRB04KT 10SM OVC041 15/04 A3009 RMK AO2
SLP189 T01500039 55000





000
SAUS46 KPDT 251901 COR
MTRMEH
METAR KMEH 251856Z AUTO VRB03KT 10SM SCT033 BKN042 14/04 A3009 RMK
AO2 SLP187 T01440039





000
SAUS46 KPDT 251800
MTRMEH
METAR KMEH 251756Z AUTO 00000KT 10SM BKN028 BKN035 14/05 A3009 RMK
AO2 SLP186 T01440050 10144 20000 51009





000
SAUS46 KPDT 251449 COR
MTRMEH
SPECI KMEH 251443Z AUTO 00000KT 10SM BKN021 07/04 A3005 RMK AO2
T00720039





000
SAUS46 KPDT 251400
MTRMEH
METAR KMEH 251356Z AUTO 00000KT 10SM CLR 04/01 A3004 RMK AO2 SLP171
T00390011





000
SAUS46 KPDT 251301 COR
MTRMEH
METAR KMEH 251256Z AUTO 00000KT 10SM CLR 00/M02 A3003 RMK AO2 SLP174
T00001017





000
SAUS46 KPDT 251200 COR
MTRMEH
METAR KMEH 251156Z AUTO 00000KT 10SM CLR 00/M02 A3002 RMK AO2 SLP170
T00001017 10056 20000 53008





000
SAUS46 KPDT 251101 COR
MTRMEH
METAR KMEH 251056Z AUTO 00000KT 10SM CLR 01/M01 A3001 RMK AO2 SLP164
T00061011





000
SAUS46 KPDT 251000
MTRMEH
METAR KMEH 250956Z AUTO 00000KT 10SM CLR 02/00 A3000 RMK AO2 SLP162
T00170000





000
SAUS46 KPDT 250700 COR
MTRMEH
METAR KMEH 250656Z AUTO 00000KT 10SM CLR 04/02 A2999 RMK AO2 SLP155
T00440022





000
SAUS46 KPDT 250601 COR
MTRMEH
METAR KMEH 250556Z AUTO 00000KT 10SM CLR 06/03 A2998 RMK AO2 SLP152
T00560033 10161 20056 51014





000
SAUS46 KPDT 250101 COR
MTRMEH
METAR KMEH 250056Z AUTO VRB04KT 10SM FEW047 SCT065 16/02 A2992 RMK
AO2 SLP132 T01560017





000
SAUS46 KPDT 242301 COR
MTRMEH
METAR KMEH 242256Z AUTO VRB04KT 10SM SCT080 15/03 A2992 RMK AO2
SLP134 T01500033





000
SAUS46 KPDT 241956
MTRMEH
METAR KMEH 241956Z AUTO VRB04KT 10SM SCT036 BKN047 BKN075 15/03
A2993 RMK AO2 SLP133 T01500028





000
SAUS46 KPDT 241758
MTRMEH
METAR KMEH 241756Z AUTO VRB03KT 10SM SCT031 12/03 A2993 RMK AO2
SLP136 T01220028 10122 20011 51002





000
SAUS46 KPDT 241556
MTRMEH
METAR KMEH 241556Z AUTO 00000KT 10SM CLR 09/04 A2992 RMK AO2 SLP134
T00940039





000
SAUS46 KPDT 241456
MTRMEH
METAR KMEH 241456Z AUTO 00000KT 10SM CLR 07/04 A2992 RMK AO2 SLP133
T00670039 53004





000
SAUS46 KPDT 241256
MTRMEH
METAR KMEH 241256Z AUTO 00000KT 10SM CLR 02/00 A2991 RMK AO2 SLP132
T00170000





000
SAUS46 KPDT 241156
MTRMEH
METAR KMEH 241156Z AUTO 00000KT 10SM CLR 01/M01 A2991 RMK AO2 SLP132
70001 T00111006 10039 20011 53002





000
SAUS46 KPDT 241056
MTRMEH
METAR KMEH 241056Z AUTO 00000KT 10SM FEW065 02/00 A2991 RMK AO2
SLP130 T00170000





000
SAUS46 KPDT 240756
MTRMEH
METAR KMEH 240756Z AUTO 00000KT 10SM CLR 02/01 A2991 RMK AO2 SLP133
T00220006 401390022





000
SAUS46 KPDT 240700
MTRMEH
METAR KMEH 240656Z AUTO 00000KT 10SM CLR 03/01 A2990 RMK AO2 SLP131
T00330011





000
SAUS46 KPDT 240556
MTRMEH
METAR KMEH 240556Z AUTO 00000KT 10SM CLR 04/02 A2990 RMK AO2 SLP130
T00390017 10139 20039 50009





000
SAUS46 KPDT 240500
MTRMEH
METAR KMEH 240456Z AUTO 00000KT 10SM CLR 06/02 A2990 RMK AO2 SLP129
T00560022





000
SAUS46 KPDT 240056
MTRMEH
METAR KMEH 240056Z AUTO VRB03KT 10SM CLR 13/M01 A2987 RMK AO2 SLP118
T01331006





000
SAUS46 KPDT 232357
MTRMEH
METAR KMEH 232356Z AUTO VRB04KT 10SM CLR 13/00 A2988 RMK AO2 SLP118
60001 T01330000 10139 20089 58005





000
SAUS46 KPDT 232256
MTRMEH
METAR KMEH 232256Z AUTO VRB04KT 10SM FEW045 13/01 A2989 RMK AO2
SLP118 T01330011





000
SAUS46 KPDT 231856
MTRMEH
METAR KMEH 231856Z AUTO VRB03KT 10SM -RA SCT032 BKN040 OVC047 10/03
A2992 RMK AO2 RAB13 SLP131 P0001 T01000028





000
SAUS46 KPDT 231828
MTRMEH
SPECI KMEH 231828Z AUTO VRB03KT 10SM -RA OVC034 09/02 A2992 RMK AO2
RAB13 P0000 T00890022





000
SAUS46 KPDT 231756
MTRMEH
METAR KMEH 231756Z AUTO VRB06KT 10SM FEW027 SCT034 OVC048 09/02
A2992 RMK AO2 SLP130 T00940017 10094 20022 53000





000
SAUS46 KPDT 231703 COR
MTRMEH
METAR KMEH 231656Z AUTO 00000KT 10SM SCT026 BKN035 OVC048 09/02
A2991 RMK AO2 SLP129 T00890017





000
SAUS46 KPDT 231621 COR
MTRMEH
SPECI KMEH 231616Z AUTO 00000KT 10SM SCT021 OVC032 08/03 A2992 RMK
AO2 T00830028





000
SAUS46 KPDT 231526
MTRMEH
SPECI KMEH 231526Z AUTO 00000KT 10SM OVC029 07/03 A2992 RMK AO2
T00720028





000
SAUS46 KPDT 231456
MTRMEH
METAR KMEH 231456Z AUTO 00000KT 10SM OVC030 07/03 A2992 RMK AO2
SLP131 T00670028 53003





000
SAUS46 KPDT 231320
MTRMEH
SPECI KMEH 231320Z AUTO 00000KT 10SM BKN025 03/02 A2991 RMK AO2
T00330017





000
SAUS46 KPDT 231256
MTRMEH
METAR KMEH 231256Z AUTO 00000KT 10SM CLR 02/01 A2991 RMK AO2 SLP132
T00220006





    US Dept of Commerce
    National Oceanic and Atmospheric Administration
    National Weather Service
    1325 East West Highway
    Silver Spring, MD 20910
    Page Author: NWS Internet Services Team
Disclaimer
Information Quality
Credits
Glossary
Privacy Policy
Freedom of Information Act (FOIA)
About Us
Career Opportunities